Time;durP1;ratioP1;P1;durP2;ratioP2;P2;SDS_P1;SDS_P2;PMS_P1;PMS_P2;Temp;Humidity;BMP_temperature;BMP_pressure;BME280_temperature;BME280_humidity;BME280_pressure;Samples;Min_cycle;Max_cycle;Signal;HPM_P1;HPM_P2
2023/05/05 00:01:36;;;;;;;5.07;3.90;;;13.70;96.10;;;;;;5063499;28;20471;-74
2023/05/05 00:04:23;;;;;;;5.23;4.30;;;13.70;96.20;;;;;;5064273;28;20452;-74
2023/05/05 00:07:08;;;;;;;5.87;4.30;;;13.60;95.80;;;;;;5048644;28;20799;-74
2023/05/05 00:09:53;;;;;;;4.70;4.20;;;13.60;96.10;;;;;;5065034;28;20436;-75
2023/05/05 00:12:39;;;;;;;6.23;4.30;;;13.70;96.10;;;;;;5058205;28;20614;-75
2023/05/05 00:15:26;;;;;;;5.50;3.77;;;13.60;96.20;;;;;;5057710;28;20587;-72
2023/05/05 00:18:12;;;;;;;12.83;4.87;;;13.60;96.60;;;;;;5058414;28;20516;-75
2023/05/05 00:20:58;;;;;;;4.67;4.17;;;13.50;96.70;;;;;;5062255;28;20479;-75
2023/05/05 00:23:44;;;;;;;6.37;3.87;;;13.40;96.50;;;;;;5037431;28;20670;-73
2023/05/05 00:26:29;;;;;;;7.80;4.60;;;13.40;96.80;;;;;;5046268;28;20833;-74
2023/05/05 00:29:15;;;;;;;7.10;4.60;;;13.20;97.40;;;;;;5055770;28;20512;-74
2023/05/05 00:32:00;;;;;;;8.80;4.77;;;13.20;98.70;;;;;;5053346;28;20562;-74
2023/05/05 00:34:46;;;;;;;5.60;3.90;;;13.00;99.20;;;;;;5049932;28;20476;-74
2023/05/05 00:37:33;;;;;;;8.17;4.87;;;13.00;99.90;;;;;;5047700;28;20444;-74
2023/05/05 00:40:18;;;;;;;5.60;4.50;;;13.00;99.90;;;;;;5059722;28;20826;-74
2023/05/05 00:43:04;;;;;;;5.93;4.40;;;13.00;99.90;;;;;;5063870;28;20868;-74
2023/05/05 00:45:56;;;;;;;8.13;4.33;;;13.00;99.90;;;;;;5047424;28;20449;-74
2023/05/05 00:48:42;;;;;;;5.90;4.20;;;13.00;99.90;;;;;;5060066;28;20447;-74
2023/05/05 00:51:28;;;;;;;10.93;4.43;;;13.10;99.90;;;;;;5053384;28;20811;-74
2023/05/05 00:54:15;;;;;;;7.60;4.23;;;13.10;99.90;;;;;;5055749;28;20812;-74
2023/05/05 00:57:00;;;;;;;6.17;4.63;;;13.30;99.90;;;;;;5050419;28;20444;-75
2023/05/05 00:59:47;;;;;;;4.80;4.23;;;13.30;99.90;;;;;;5058552;28;20494;-74
2023/05/05 01:02:32;;;;;;;5.80;4.53;;;13.20;99.90;;;;;;5052364;28;20470;-74
2023/05/05 01:05:19;;;;;;;7.40;4.80;;;13.20;99.90;;;;;;5053913;28;20438;-74
2023/05/05 01:08:17;;;;;;;6.27;4.43;;;13.20;99.90;;;;;;5053394;28;20516;-75
2023/05/05 01:11:11;;;;;;;6.30;5.70;;;13.20;99.90;;;;;;5058765;28;20427;-74
2023/05/05 01:14:05;;;;;;;5.27;4.40;;;13.20;99.90;;;;;;5066780;28;20480;-74
2023/05/05 01:16:57;;;;;;;7.63;4.80;;;13.10;99.90;;;;;;5053210;28;20440;-74
2023/05/05 01:19:58;;;;;;;5.97;4.53;;;13.10;99.90;;;;;;5058432;28;20899;-75
2023/05/05 01:22:48;;;;;;;5.70;4.27;;;13.00;99.90;;;;;;5055248;28;20450;-73
2023/05/05 01:26:05;;;;;;;8.70;4.90;;;13.20;99.90;;;;;;5044477;28;20804;-75
2023/05/05 01:29:05;;;;;;;6.60;5.17;;;13.20;99.90;;;;;;5047119;28;20969;-75
2023/05/05 01:31:55;;;;;;;7.93;5.23;;;13.10;99.90;;;;;;5049664;28;20471;-74
2023/05/05 01:34:49;;;;;;;6.20;4.90;;;13.00;99.90;;;;;;5044739;28;20996;-74
2023/05/05 01:37:43;;;;;;;10.70;4.80;;;13.00;99.90;;;;;;5042708;28;20448;-72
2023/05/05 01:40:34;;;;;;;9.37;5.00;;;13.00;99.90;;;;;;5045858;28;20406;-72
2023/05/05 01:43:23;;;;;;;6.07;4.60;;;13.00;99.90;;;;;;5065469;28;20451;-74
2023/05/05 01:46:09;;;;;;;6.50;5.17;;;12.80;99.90;;;;;;5043901;28;20430;-75
2023/05/05 01:48:58;;;;;;;8.40;6.00;;;12.90;99.90;;;;;;5059933;28;20448;-74
2023/05/05 01:51:47;;;;;;;7.60;5.40;;;12.70;99.90;;;;;;5057160;28;20463;-75
2023/05/05 01:54:35;;;;;;;7.20;4.60;;;12.70;99.90;;;;;;5043065;28;20450;-73
2023/05/05 01:57:21;;;;;;;7.30;5.00;;;12.80;99.90;;;;;;5053067;28;20436;-74
2023/05/05 02:00:09;;;;;;;6.20;5.20;;;12.90;99.90;;;;;;5052020;28;20476;-74
2023/05/05 02:02:56;;;;;;;6.13;5.40;;;12.80;99.90;;;;;;5060220;28;20448;-74
2023/05/05 02:05:43;;;;;;;6.73;5.10;;;12.80;99.90;;;;;;5044295;28;20481;-74
2023/05/05 02:08:30;;;;;;;5.57;4.73;;;12.80;99.90;;;;;;5062942;28;20466;-74
2023/05/05 02:11:16;;;;;;;8.60;5.30;;;12.90;99.90;;;;;;5059594;28;20530;-74
2023/05/05 02:14:02;;;;;;;5.20;4.70;;;12.80;99.90;;;;;;5054663;28;20480;-72
2023/05/05 02:16:48;;;;;;;5.23;4.73;;;12.90;99.90;;;;;;5057041;28;20417;-74
2023/05/05 02:19:38;;;;;;;6.30;4.70;;;12.90;99.90;;;;;;5054014;28;20446;-74
2023/05/05 02:22:25;;;;;;;8.73;5.33;;;12.80;99.90;;;;;;5051271;28;20464;-75
2023/05/05 02:25:11;;;;;;;6.23;5.17;;;12.70;99.90;;;;;;5044836;28;20525;-74
2023/05/05 02:27:58;;;;;;;10.17;5.40;;;12.60;99.90;;;;;;5059935;28;20454;-73
2023/05/05 02:30:46;;;;;;;6.27;5.30;;;12.60;99.90;;;;;;5056835;28;20986;-74
2023/05/05 02:33:33;;;;;;;8.30;5.23;;;12.50;99.90;;;;;;5051294;28;20461;-74
2023/05/05 02:36:21;;;;;;;6.03;5.43;;;12.40;99.90;;;;;;5059104;28;20511;-74
2023/05/05 02:39:13;;;;;;;6.80;5.03;;;12.30;99.90;;;;;;5061508;28;20444;-73
2023/05/05 02:42:01;;;;;;;9.50;5.80;;;12.50;99.90;;;;;;5060387;28;20471;-75
2023/05/05 02:44:49;;;;;;;5.53;4.97;;;12.40;99.90;;;;;;5048439;28;20815;-74
2023/05/05 02:47:35;;;;;;;9.10;5.40;;;12.40;99.90;;;;;;5054780;28;20534;-74
2023/05/05 02:50:20;;;;;;;6.63;5.10;;;12.50;99.90;;;;;;5057942;28;20466;-74
2023/05/05 02:53:05;;;;;;;5.77;5.13;;;12.60;99.90;;;;;;5055587;28;21004;-74
2023/05/05 02:55:57;;;;;;;7.10;5.00;;;12.50;99.90;;;;;;5048618;28;20463;-74
2023/05/05 02:58:48;;;;;;;6.80;5.50;;;12.60;99.90;;;;;;5038123;28;21028;-74
2023/05/05 03:01:47;;;;;;;12.53;5.23;;;12.60;99.90;;;;;;5042717;28;20448;-74
2023/05/05 03:04:38;;;;;;;7.33;5.60;;;12.50;99.90;;;;;;5041823;28;20448;-74
2023/05/05 03:07:26;;;;;;;8.50;6.00;;;12.50;99.90;;;;;;5056621;28;20591;-74
2023/05/05 03:10:16;;;;;;;9.80;6.23;;;12.40;99.90;;;;;;5058203;28;20806;-74
2023/05/05 03:13:04;;;;;;;10.23;5.57;;;12.30;99.90;;;;;;5071272;23;20498;-74
2023/05/05 03:15:52;;;;;;;6.50;5.80;;;12.30;99.90;;;;;;5068909;28;20471;-73
2023/05/05 03:18:41;;;;;;;6.50;4.90;;;12.20;99.90;;;;;;5068244;28;20433;-74
2023/05/05 03:21:27;;;;;;;7.30;5.83;;;12.20;99.90;;;;;;5075006;28;20419;-74
2023/05/05 03:24:14;;;;;;;7.43;5.67;;;12.20;99.90;;;;;;5055390;28;20452;-73
2023/05/05 03:27:00;;;;;;;8.37;5.23;;;12.00;99.90;;;;;;5066016;28;20428;-74
2023/05/05 03:29:47;;;;;;;9.30;5.50;;;12.00;99.90;;;;;;5061067;28;20517;-74
2023/05/05 03:32:32;;;;;;;8.53;5.10;;;12.00;99.90;;;;;;5066763;28;20472;-74
2023/05/05 03:35:18;;;;;;;6.07;5.07;;;12.10;99.90;;;;;;5055062;28;20463;-74
2023/05/05 03:38:03;;;;;;;7.77;5.60;;;12.10;99.90;;;;;;5062179;28;20420;-73
2023/05/05 03:40:48;;;;;;;7.33;5.67;;;12.20;99.90;;;;;;5066148;28;20416;-73
2023/05/05 03:43:34;;;;;;;6.10;5.50;;;12.20;99.90;;;;;;5049365;28;20601;-74
2023/05/05 03:46:21;;;;;;;5.03;4.53;;;12.10;99.90;;;;;;5070752;28;20393;-73
2023/05/05 03:49:08;;;;;;;6.57;5.30;;;12.00;99.90;;;;;;5066447;28;20435;-74
2023/05/05 03:51:53;;;;;;;6.10;5.50;;;11.90;99.90;;;;;;5071706;28;20450;-73
2023/05/05 03:54:39;;;;;;;11.30;5.97;;;11.80;99.90;;;;;;5060273;28;20543;-74
2023/05/05 03:57:24;;;;;;;10.23;6.90;;;11.80;99.90;;;;;;5065294;28;20447;-74
2023/05/05 04:00:11;;;;;;;6.53;5.77;;;11.70;99.90;;;;;;5073691;28;20566;-74
2023/05/05 04:02:58;;;;;;;7.47;5.90;;;11.70;99.90;;;;;;5050297;28;20822;-74
2023/05/05 04:05:43;;;;;;;7.30;5.40;;;11.70;99.90;;;;;;5060648;28;20535;-73
2023/05/05 04:08:28;;;;;;;9.10;6.30;;;11.70;99.90;;;;;;5052471;28;20454;-74
2023/05/05 04:11:14;;;;;;;10.00;5.77;;;11.80;99.90;;;;;;5059932;28;20582;-73
2023/05/05 04:13:59;;;;;;;6.60;5.47;;;11.80;99.90;;;;;;5055036;28;20446;-73
2023/05/05 04:16:45;;;;;;;7.17;5.60;;;11.80;99.90;;;;;;5057001;28;20774;-74
2023/05/05 04:19:33;;;;;;;8.07;5.60;;;11.90;99.90;;;;;;5052445;28;20797;-73
2023/05/05 04:22:18;;;;;;;6.33;5.43;;;11.90;99.90;;;;;;5059003;28;20514;-73
2023/05/05 04:25:05;;;;;;;8.17;6.50;;;11.90;99.90;;;;;;5045966;28;20456;-74
2023/05/05 04:27:50;;;;;;;7.47;5.90;;;12.00;99.90;;;;;;5057134;28;20463;-73
2023/05/05 04:30:36;;;;;;;7.13;6.00;;;12.10;99.90;;;;;;5069731;28;20423;-74
2023/05/05 04:33:21;;;;;;;6.07;5.47;;;12.20;99.90;;;;;;5046775;28;21906;-74
2023/05/05 04:36:09;;;;;;;6.90;5.90;;;12.30;99.90;;;;;;5059149;28;20475;-74
2023/05/05 04:38:54;;;;;;;6.63;5.40;;;12.30;99.90;;;;;;5051043;28;20427;-74
2023/05/05 04:41:40;;;;;;;11.27;7.00;;;12.30;99.90;;;;;;5053251;28;21001;-73
2023/05/05 04:44:25;;;;;;;7.67;6.37;;;12.30;99.90;;;;;;5057352;28;20501;-74
2023/05/05 04:47:11;;;;;;;11.73;6.10;;;12.20;99.90;;;;;;5062059;28;20541;-74
2023/05/05 04:49:56;;;;;;;8.73;5.90;;;12.20;99.90;;;;;;5064018;28;20443;-74
2023/05/05 04:52:43;;;;;;;6.03;5.43;;;12.30;99.90;;;;;;5052820;28;20968;-74
2023/05/05 04:55:29;;;;;;;5.87;5.27;;;12.30;99.90;;;;;;5058849;28;20473;-73
2023/05/05 04:58:14;;;;;;;7.90;5.70;;;12.40;99.90;;;;;;5059442;28;20827;-74
2023/05/05 05:00:59;;;;;;;9.67;5.63;;;12.30;99.90;;;;;;5056733;28;20452;-73
2023/05/05 05:03:45;;;;;;;10.17;6.17;;;12.30;99.90;;;;;;5054795;28;20458;-74
2023/05/05 05:06:30;;;;;;;11.73;6.40;;;12.40;99.90;;;;;;5059015;28;20522;-74
2023/05/05 05:09:17;;;;;;;6.90;5.90;;;12.40;99.90;;;;;;5060316;28;20426;-73
2023/05/05 05:12:03;;;;;;;10.67;6.23;;;12.60;99.90;;;;;;5045524;28;20896;-74
2023/05/05 05:14:48;;;;;;;7.00;5.90;;;12.80;99.90;;;;;;5060926;28;20856;-74
2023/05/05 05:17:34;;;;;;;12.00;5.73;;;12.90;99.90;;;;;;5063994;28;20451;-74
2023/05/05 05:20:20;;;;;;;8.57;6.10;;;12.90;99.90;;;;;;5068250;28;20420;-74
2023/05/05 05:23:05;;;;;;;11.00;6.20;;;13.10;99.90;;;;;;5048831;28;20460;-74
2023/05/05 05:25:52;;;;;;;6.63;5.30;;;13.10;99.90;;;;;;5055613;28;20434;-74
2023/05/05 05:28:37;;;;;;;7.10;5.93;;;13.30;99.90;;;;;;5059128;28;20444;-74
2023/05/05 05:31:23;;;;;;;9.13;5.97;;;13.40;99.90;;;;;;5056629;28;20503;-74
2023/05/05 05:34:09;;;;;;;12.07;7.17;;;13.50;99.90;;;;;;5057033;28;20517;-74
2023/05/05 05:36:54;;;;;;;11.70;7.27;;;13.60;99.90;;;;;;5059615;28;20476;-74
2023/05/05 05:39:40;;;;;;;10.20;6.87;;;13.70;99.90;;;;;;5071558;28;20431;-74
2023/05/05 05:42:26;;;;;;;10.97;6.93;;;13.80;99.90;;;;;;5046483;28;20446;-73
2023/05/05 05:45:12;;;;;;;10.83;6.70;;;13.90;99.90;;;;;;5063967;28;20489;-74
2023/05/05 05:47:57;;;;;;;8.70;6.13;;;14.10;99.90;;;;;;5067380;28;20427;-74
2023/05/05 05:50:43;;;;;;;10.17;7.10;;;14.10;99.90;;;;;;5066356;28;20427;-74
2023/05/05 05:53:28;;;;;;;13.47;7.33;;;14.10;99.90;;;;;;5055463;28;20438;-74
2023/05/05 05:56:14;;;;;;;10.63;7.27;;;14.00;99.90;;;;;;5066673;28;20565;-74
2023/05/05 05:59:01;;;;;;;9.53;6.33;;;14.10;99.90;;;;;;5067068;28;20596;-73
2023/05/05 06:01:46;;;;;;;7.57;6.20;;;14.30;99.90;;;;;;5041555;28;20514;-74
2023/05/05 06:04:32;;;;;;;7.70;6.37;;;14.50;99.90;;;;;;5062231;28;20455;-74
2023/05/05 06:07:17;;;;;;;7.00;6.30;;;14.70;99.90;;;;;;5054368;28;20444;-74
2023/05/05 06:10:03;;;;;;;9.47;6.40;;;15.00;99.90;;;;;;5060107;28;20474;-74
2023/05/05 06:12:48;;;;;;;6.40;5.43;;;15.20;99.90;;;;;;5049899;28;20589;-74
2023/05/05 06:15:35;;;;;;;9.70;5.67;;;15.30;99.90;;;;;;5054868;28;20480;-74
2023/05/05 06:18:21;;;;;;;6.70;5.70;;;15.40;99.90;;;;;;5054418;28;20444;-74
2023/05/05 06:21:07;;;;;;;7.53;6.60;;;15.50;99.90;;;;;;5052066;28;20452;-73
2023/05/05 06:23:52;;;;;;;6.70;6.00;;;15.50;99.90;;;;;;5044897;28;20423;-74
2023/05/05 06:26:38;;;;;;;23.70;5.97;;;15.60;99.90;;;;;;5057001;28;20811;-74
2023/05/05 06:29:23;;;;;;;8.67;7.00;;;15.60;99.90;;;;;;5062296;28;20436;-74
2023/05/05 06:32:11;;;;;;;7.40;5.97;;;15.70;99.90;;;;;;5056834;28;20472;-73
2023/05/05 06:34:56;;;;;;;6.57;5.50;;;16.00;99.90;;;;;;5071360;28;20424;-74
2023/05/05 06:37:43;;;;;;;8.50;5.73;;;16.10;99.90;;;;;;5053083;28;20453;-74
2023/05/05 06:40:28;;;;;;;7.10;6.00;;;16.40;99.90;;;;;;5048527;28;20446;-74
2023/05/05 06:43:13;;;;;;;15.60;5.57;;;16.60;99.90;;;;;;5054688;28;20468;-74
2023/05/05 06:45:58;;;;;;;11.57;5.40;;;16.80;99.90;;;;;;5055436;28;20533;-74
2023/05/05 06:48:45;;;;;;;9.03;5.87;;;17.00;99.90;;;;;;5049685;28;20531;-74
2023/05/05 06:51:31;;;;;;;8.13;6.73;;;17.10;99.90;;;;;;5046039;28;20528;-74
2023/05/05 06:54:16;;;;;;;7.83;6.60;;;17.30;99.90;;;;;;5059984;28;20440;-74
2023/05/05 06:57:02;;;;;;;21.83;7.10;;;17.30;99.90;;;;;;5070433;28;20468;-74
2023/05/05 06:59:48;;;;;;;12.17;6.50;;;17.30;99.90;;;;;;5058321;28;20484;-73
2023/05/05 07:02:33;;;;;;;9.63;6.70;;;17.40;99.90;;;;;;5057358;28;20468;-74
2023/05/05 07:05:20;;;;;;;10.33;6.70;;;17.40;99.90;;;;;;5069538;28;20445;-74
2023/05/05 07:08:07;;;;;;;8.77;6.50;;;17.40;99.90;;;;;;5069842;28;20554;-74
2023/05/05 07:10:53;;;;;;;12.00;6.73;;;17.50;99.90;;;;;;5050731;28;20453;-74
2023/05/05 07:13:38;;;;;;;11.33;6.67;;;17.70;99.90;;;;;;5063888;28;20455;-74
2023/05/05 07:16:25;;;;;;;10.13;6.70;;;17.90;99.90;;;;;;5053601;28;20469;-74
2023/05/05 07:19:11;;;;;;;11.50;5.60;;;18.00;99.90;;;;;;5052124;28;20580;-74
2023/05/05 07:21:57;;;;;;;11.23;6.87;;;18.20;99.90;;;;;;5046473;28;20520;-74
2023/05/05 07:24:43;;;;;;;7.57;5.50;;;18.30;99.90;;;;;;5052873;28;20971;-74
2023/05/05 07:27:29;;;;;;;10.37;6.10;;;18.40;99.90;;;;;;5057944;28;20442;-74
2023/05/05 07:30:14;;;;;;;7.30;5.37;;;18.50;99.90;;;;;;5052433;28;20446;-72
2023/05/05 07:33:00;;;;;;;10.50;5.73;;;18.70;99.90;;;;;;5057585;28;20471;-74
2023/05/05 07:35:45;;;;;;;9.90;6.30;;;18.80;99.90;;;;;;5053850;28;20870;-74
2023/05/05 07:38:32;;;;;;;8.13;5.73;;;18.80;97.30;;;;;;5054535;28;20475;-74
2023/05/05 07:41:18;;;;;;;12.83;5.40;;;18.90;98.90;;;;;;5058213;28;20465;-74
2023/05/05 07:44:03;;;;;;;15.33;6.30;;;19.00;98.50;;;;;;5069306;28;20491;-74
2023/05/05 07:46:49;;;;;;;8.33;5.50;;;19.10;98.70;;;;;;5050682;28;20442;-74
2023/05/05 07:49:34;;;;;;;8.73;5.20;;;19.20;97.40;;;;;;5057360;28;20493;-74
2023/05/05 07:52:20;;;;;;;6.50;5.40;;;19.30;94.90;;;;;;5046638;28;20457;-74
2023/05/05 07:55:07;;;;;;;7.40;4.90;;;19.30;93.20;;;;;;5058795;28;20450;-74
2023/05/05 07:57:53;;;;;;;6.83;4.40;;;19.30;93.00;;;;;;5059147;28;20950;-74
2023/05/05 08:00:38;;;;;;;8.67;5.10;;;19.40;93.80;;;;;;5051309;28;20807;-71
2023/05/05 08:03:24;;;;;;;9.83;6.00;;;19.50;91.60;;;;;;5060741;28;20888;-72
2023/05/05 08:06:10;;;;;;;6.60;4.90;;;19.50;91.10;;;;;;5060671;28;20441;-72
2023/05/05 08:08:55;;;;;;;7.30;5.50;;;19.60;90.80;;;;;;5060250;28;20512;-71
2023/05/05 08:11:43;;;;;;;7.43;5.30;;;19.60;90.60;;;;;;5050968;28;20892;-72
2023/05/05 08:14:28;;;;;;;9.20;5.20;;;19.70;90.50;;;;;;5065566;28;20531;-71
2023/05/05 08:17:13;;;;;;;16.00;5.30;;;19.70;87.30;;;;;;5056553;28;20853;-71
2023/05/05 08:19:59;;;;;;;8.30;5.67;;;19.70;87.90;;;;;;5052715;28;20449;-72
2023/05/05 08:22:45;;;;;;;10.07;6.23;;;19.70;90.00;;;;;;5050717;28;21102;-72
2023/05/05 08:25:31;;;;;;;8.33;6.57;;;19.80;88.60;;;;;;5054403;28;20512;-71
2023/05/05 08:28:17;;;;;;;8.23;5.20;;;19.80;88.80;;;;;;5065543;28;21046;-72
2023/05/05 08:31:04;;;;;;;6.83;5.10;;;19.90;87.40;;;;;;5054349;28;20459;-73
2023/05/05 08:33:49;;;;;;;7.40;5.67;;;20.00;88.50;;;;;;5043781;28;20470;-71
2023/05/05 08:36:35;;;;;;;8.83;5.30;;;20.10;89.50;;;;;;5051773;28;20473;-72
2023/05/05 08:39:20;;;;;;;11.80;6.00;;;20.30;89.40;;;;;;5056741;28;20521;-72
2023/05/05 08:42:05;;;;;;;10.20;6.03;;;20.40;84.20;;;;;;5055273;28;20534;-71
2023/05/05 08:44:53;;;;;;;5.53;4.80;;;20.30;85.60;;;;;;5054800;28;20454;-72
2023/05/05 08:47:39;;;;;;;8.27;5.60;;;20.20;82.60;;;;;;5053994;28;20813;-72
2023/05/05 08:50:27;;;;;;;8.20;5.10;;;20.30;84.10;;;;;;5046891;28;20496;-70
2023/05/05 08:53:16;;;;;;;8.20;6.10;;;20.40;82.60;;;;;;5044180;28;20470;-72
2023/05/05 08:56:03;;;;;;;10.60;5.00;;;20.40;85.30;;;;;;5050218;28;20626;-72
2023/05/05 08:58:50;;;;;;;7.60;4.93;;;20.50;85.10;;;;;;5055455;28;20442;-71
2023/05/05 09:01:37;;;;;;;15.13;4.90;;;20.60;83.20;;;;;;5054728;28;20474;-72
2023/05/05 09:04:23;;;;;;;8.60;4.27;;;20.70;81.20;;;;;;5049552;28;20447;-72
2023/05/05 09:07:09;;;;;;;6.10;4.80;;;20.80;78.80;;;;;;5059472;28;20820;-71
2023/05/05 09:09:54;;;;;;;10.00;4.67;;;20.80;78.70;;;;;;5041753;28;20489;-72
2023/05/05 09:12:40;;;;;;;6.33;3.10;;;20.90;80.00;;;;;;5061133;28;22474;-72
2023/05/05 09:15:27;;;;;;;7.87;4.10;;;20.90;67.90;;;;;;5054905;28;20459;-72
2023/05/05 09:18:13;;;;;;;8.23;5.60;;;21.00;70.60;;;;;;5050177;28;20562;-72
2023/05/05 09:20:59;;;;;;;7.10;4.83;;;21.00;71.10;;;;;;5047065;28;20522;-72
2023/05/05 09:24:04;;;;;;;6.90;3.70;;;21.00;70.30;;;;;;5054288;28;20460;-72
2023/05/05 09:26:49;;;;;;;6.97;3.87;;;21.00;71.50;;;;;;5055379;28;20443;-71
2023/05/05 09:29:35;;;;;;;5.27;4.50;;;21.20;74.40;;;;;;5044577;28;20452;-71
2023/05/05 09:32:20;;;;;;;6.70;5.30;;;21.30;74.30;;;;;;5054119;28;20473;-71
2023/05/05 09:35:08;;;;;;;11.80;4.17;;;21.40;72.60;;;;;;5050973;28;20468;-71
2023/05/05 09:37:53;;;;;;;4.00;3.47;;;21.40;66.10;;;;;;5057552;28;21018;-71
2023/05/05 09:40:46;;;;;;;4.90;2.90;;;21.50;68.70;;;;;;5050491;28;20952;-72
2023/05/05 09:43:50;;;;;;;9.57;2.90;;;21.70;68.60;;;;;;5055590;28;20466;-72
2023/05/05 09:46:35;;;;;;;6.87;3.47;;;21.70;63.20;;;;;;5052994;28;20449;-72
2023/05/05 09:49:24;;;;;;;5.43;2.63;;;21.80;63.40;;;;;;5040418;28;20516;-72
2023/05/05 09:52:15;;;;;;;3.30;2.50;;;21.90;63.50;;;;;;5050520;28;20489;-72
2023/05/05 09:55:00;;;;;;;3.80;2.57;;;21.80;55.30;;;;;;5053786;28;20441;-72
2023/05/05 09:57:46;;;;;;;4.00;2.20;;;21.70;55.10;;;;;;5050231;28;20768;-72
2023/05/05 10:00:38;;;;;;;3.30;2.10;;;21.80;56.80;;;;;;5048564;28;20570;-72
2023/05/05 10:03:24;;;;;;;5.43;2.50;;;21.90;50.40;;;;;;5049868;28;20539;-72
2023/05/05 10:06:10;;;;;;;4.00;2.00;;;22.00;53.30;;;;;;5049091;28;21942;-72
2023/05/05 10:09:02;;;;;;;6.63;2.20;;;22.20;53.20;;;;;;5039519;28;20443;-72
2023/05/05 10:11:47;;;;;;;3.30;2.07;;;22.30;49.90;;;;;;5046183;28;20549;-71
2023/05/05 10:14:35;;;;;;;3.20;2.00;;;22.40;47.80;;;;;;5061841;28;20439;-71
2023/05/05 10:17:23;;;;;;;5.67;2.53;;;22.50;48.50;;;;;;5056932;28;20562;-72
2023/05/05 10:20:12;;;;;;;4.07;2.60;;;22.60;50.70;;;;;;5045561;28;20439;-71
2023/05/05 10:23:02;;;;;;;4.03;1.83;;;22.80;49.60;;;;;;5046610;28;21087;-71
2023/05/05 10:25:58;;;;;;;5.87;2.30;;;22.80;44.00;;;;;;5049304;28;20452;-71
2023/05/05 10:28:45;;;;;;;4.57;2.10;;;22.80;47.40;;;;;;5044812;28;20937;-72
2023/05/05 10:31:41;;;;;;;3.70;2.50;;;22.90;45.30;;;;;;5052429;28;20447;-71
2023/05/05 10:34:35;;;;;;;5.43;2.27;;;22.90;39.10;;;;;;5055530;28;20451;-72
2023/05/05 10:37:22;;;;;;;4.97;1.93;;;23.10;41.10;;;;;;5047221;28;20490;-71
2023/05/05 10:40:09;;;;;;;4.83;2.30;;;22.90;36.30;;;;;;5051473;28;20447;-71
2023/05/05 10:42:56;;;;;;;7.57;2.63;;;23.00;39.70;;;;;;5054321;28;20480;-72
2023/05/05 10:45:42;;;;;;;3.43;2.33;;;23.10;41.40;;;;;;5048830;28;20439;-72
2023/05/05 10:48:35;;;;;;;6.63;2.30;;;23.10;38.20;;;;;;5053537;28;20486;-72
2023/05/05 10:51:28;;;;;;;3.27;2.00;;;23.10;38.60;;;;;;5047200;28;20575;-71
2023/05/05 10:54:21;;;;;;;5.27;2.80;;;23.10;39.80;;;;;;5054335;28;20457;-72
2023/05/05 10:57:10;;;;;;;3.80;2.10;;;22.90;36.70;;;;;;5051035;28;21006;-71
2023/05/05 10:59:57;;;;;;;3.70;2.43;;;22.60;39.70;;;;;;5050630;28;20452;-72
2023/05/05 11:02:42;;;;;;;4.63;2.40;;;22.50;42.20;;;;;;5054924;28;20462;-71
2023/05/05 11:05:28;;;;;;;2.70;1.87;;;22.70;42.40;;;;;;5053675;28;20581;-71
2023/05/05 11:08:25;;;;;;;5.80;2.20;;;22.70;40.70;;;;;;5047703;28;20460;-71
2023/05/05 11:11:12;;;;;;;8.40;1.97;;;22.70;39.40;;;;;;5047623;28;20483;-71
2023/05/05 11:14:21;;;;;;;4.30;2.00;;;22.70;36.70;;;;;;5049680;28;20820;-71
2023/05/05 11:17:46;;;;;;;4.60;1.83;;;22.50;37.10;;;;;;5048870;28;20483;-72
2023/05/05 11:21:18;;;;;;;3.67;1.60;;;22.40;39.60;;;;;;5041318;28;20463;-71
2023/05/05 11:24:27;;;;;;;3.00;1.27;;;22.40;39.60;;;;;;5047761;28;20448;-71
2023/05/05 11:27:12;;;;;;;2.20;1.47;;;22.20;37.50;;;;;;5046289;28;20499;-71
2023/05/05 11:30:06;;;;;;;5.73;2.03;;;22.00;39.10;;;;;;5053005;28;20517;-71
2023/05/05 11:33:27;;;;;;;4.83;1.73;;;21.90;39.70;;;;;;5051731;28;20462;-71
2023/05/05 11:36:13;;;;;;;3.70;1.97;;;21.80;41.50;;;;;;5054862;28;20451;-71
2023/05/05 11:39:09;;;;;;;3.27;1.80;;;21.80;41.50;;;;;;5045299;28;20862;-72
2023/05/05 11:42:20;;;;;;;2.97;1.90;;;21.80;41.50;;;;;;5059867;28;20469;-72
2023/05/05 11:45:20;;;;;;;3.90;2.27;;;21.70;41.40;;;;;;5056736;28;20446;-71
2023/05/05 11:48:25;;;;;;;6.13;2.30;;;21.80;42.70;;;;;;5044127;28;20447;-72
2023/05/05 11:51:12;;;;;;;4.10;1.80;;;21.90;45.70;;;;;;5060760;28;20958;-71
2023/05/05 11:53:56;;;;;;;10.63;1.93;;;22.00;49.30;;;;;;5053048;28;20943;-69
2023/05/05 11:56:50;;;;;;;3.63;1.67;;;22.10;48.30;;;;;;5050718;28;20438;-70
2023/05/05 11:59:36;;;;;;;2.80;1.73;;;22.10;46.00;;;;;;5048369;28;20533;-70
2023/05/05 12:02:25;;;;;;;3.90;2.03;;;22.10;44.10;;;;;;5047207;28;21052;-72
2023/05/05 12:05:19;;;;;;;5.30;1.57;;;22.10;44.90;;;;;;5051444;28;20962;-72
2023/05/05 12:08:04;;;;;;;11.30;2.47;;;22.10;44.70;;;;;;5045758;28;20444;-71
2023/05/05 12:10:50;;;;;;;3.13;2.07;;;22.20;45.00;;;;;;5047405;28;21232;-71
2023/05/05 12:13:36;;;;;;;3.33;1.73;;;22.30;43.50;;;;;;5053907;28;20486;-71
2023/05/05 12:16:21;;;;;;;4.17;2.20;;;22.40;44.10;;;;;;5051996;28;21039;-71
2023/05/05 12:19:10;;;;;;;5.67;1.83;;;22.30;42.00;;;;;;5054242;28;20436;-71
2023/05/05 12:21:57;;;;;;;5.30;2.40;;;22.40;43.70;;;;;;5058096;28;20455;-70
2023/05/05 12:24:42;;;;;;;4.03;2.00;;;22.70;43.60;;;;;;5048681;28;20475;-71
2023/05/05 12:27:29;;;;;;;3.73;1.80;;;23.10;41.60;;;;;;5050692;28;20441;-71
2023/05/05 12:30:16;;;;;;;4.57;1.60;;;23.30;40.70;;;;;;5060209;28;20518;-71
2023/05/05 12:33:02;;;;;;;6.37;2.60;;;23.40;40.50;;;;;;5054231;28;20475;-72
2023/05/05 12:35:47;;;;;;;5.53;1.70;;;23.30;41.20;;;;;;5044664;28;20601;-71
2023/05/05 12:38:35;;;;;;;3.40;1.70;;;23.40;43.20;;;;;;5048733;28;20494;-71
2023/05/05 12:41:21;;;;;;;3.60;1.90;;;23.50;40.30;;;;;;5054906;28;20799;-70
2023/05/05 12:44:06;;;;;;;4.27;2.10;;;23.40;38.70;;;;;;5048630;28;20587;-71
2023/05/05 12:46:53;;;;;;;4.40;2.40;;;23.20;37.80;;;;;;5049271;28;20455;-71
2023/05/05 12:49:46;;;;;;;3.33;1.83;;;23.10;37.70;;;;;;5052660;28;20545;-71
2023/05/05 12:52:45;;;;;;;3.50;1.50;;;23.20;39.30;;;;;;5046005;28;20475;-72
2023/05/05 12:55:38;;;;;;;4.07;1.50;;;23.20;38.50;;;;;;5044161;28;20446;-71
2023/05/05 12:58:24;;;;;;;3.53;1.67;;;23.30;40.70;;;;;;5043301;28;20475;-73
2023/05/05 13:01:10;;;;;;;4.10;2.10;;;23.50;43.30;;;;;;5046357;28;20846;-72
2023/05/05 13:04:10;;;;;;;3.20;1.77;;;23.50;40.40;;;;;;5043751;28;20456;-72
2023/05/05 13:07:10;;;;;;;2.60;1.80;;;23.80;40.70;;;;;;5040667;28;20453;-72
2023/05/05 13:10:07;;;;;;;4.57;2.10;;;24.00;39.60;;;;;;5051623;28;20837;-71
2023/05/05 13:12:55;;;;;;;4.27;1.70;;;24.00;36.70;;;;;;5050494;28;20689;-72
2023/05/05 13:15:40;;;;;;;7.87;1.93;;;23.90;35.90;;;;;;5046182;28;20447;-73
2023/05/05 13:18:26;;;;;;;5.90;2.37;;;23.90;35.70;;;;;;5054744;28;21001;-71
2023/05/05 13:21:11;;;;;;;3.70;1.60;;;23.90;35.00;;;;;;5046364;28;20443;-72
2023/05/05 13:23:57;;;;;;;3.93;1.87;;;24.00;35.00;;;;;;5046767;28;20446;-72
2023/05/05 13:26:42;;;;;;;3.40;1.80;;;24.10;34.50;;;;;;5047745;28;20448;-72
2023/05/05 13:29:29;;;;;;;9.93;1.60;;;24.10;34.90;;;;;;5046630;28;20983;-72
2023/05/05 13:32:14;;;;;;;8.10;1.73;;;24.10;34.40;;;;;;5062174;28;20458;-72
2023/05/05 13:35:00;;;;;;;3.20;2.00;;;24.10;38.80;;;;;;5045672;28;21214;-71
2023/05/05 13:37:46;;;;;;;3.03;1.40;;;23.90;35.60;;;;;;5047547;28;20472;-71
2023/05/05 13:40:32;;;;;;;8.30;2.00;;;23.80;35.20;;;;;;5049772;28;20479;-71
2023/05/05 13:43:18;;;;;;;3.57;1.87;;;23.70;35.40;;;;;;5040756;28;21003;-71
2023/05/05 13:46:05;;;;;;;3.60;1.97;;;23.70;35.30;;;;;;5041147;28;20510;-71
2023/05/05 13:48:50;;;;;;;4.33;2.17;;;23.70;35.00;;;;;;5052768;28;20443;-71
2023/05/05 13:51:37;;;;;;;4.13;2.17;;;23.60;34.30;;;;;;5053895;28;20454;-71
2023/05/05 13:54:22;;;;;;;4.57;2.20;;;23.60;36.10;;;;;;5059816;28;20451;-70
2023/05/05 13:57:09;;;;;;;4.20;1.60;;;23.50;34.80;;;;;;5052087;28;20445;-71
2023/05/05 13:59:54;;;;;;;12.20;2.27;;;23.40;34.90;;;;;;5050751;28;20439;-71
2023/05/05 14:02:41;;;;;;;4.00;2.30;;;23.30;38.30;;;;;;5048789;28;20479;-71
2023/05/05 14:05:27;;;;;;;8.73;1.70;;;23.20;36.70;;;;;;5048824;28;20554;-71
2023/05/05 14:08:12;;;;;;;3.23;1.73;;;23.10;36.40;;;;;;5053030;28;20453;-71
2023/05/05 14:10:57;;;;;;;7.23;2.07;;;23.10;38.00;;;;;;5052873;28;20635;-71
2023/05/05 14:13:43;;;;;;;4.43;1.53;;;23.00;37.00;;;;;;5046545;28;20557;-71
2023/05/05 14:16:29;;;;;;;9.57;1.70;;;23.10;39.40;;;;;;5043906;28;20573;-70
2023/05/05 14:19:16;;;;;;;5.00;1.83;;;23.20;38.10;;;;;;5047655;28;20493;-71
2023/05/05 14:22:01;;;;;;;5.17;1.70;;;23.10;37.60;;;;;;5049458;28;20829;-71
2023/05/05 14:24:46;;;;;;;5.80;1.70;;;23.10;39.10;;;;;;5041750;28;20446;-71
2023/05/05 14:27:31;;;;;;;4.80;2.03;;;23.10;39.10;;;;;;5051248;28;20446;-71
2023/05/05 14:30:17;;;;;;;4.60;1.50;;;23.00;37.80;;;;;;5051458;28;20807;-71
2023/05/05 14:33:03;;;;;;;6.40;1.80;;;23.10;38.80;;;;;;5040584;28;20827;-71